sensor_id;sensor_type;location;lat;lon;timestamp;P1;durP1;ratioP1;P2;durP2;ratioP2
68054;SDS011;54841;43.616;1.460;2022-10-22T00:01:47;5.20;;;2.08;;
68054;SDS011;54841;43.616;1.460;2022-10-22T00:04:13;6.90;;;1.50;;
68054;SDS011;54841;43.616;1.460;2022-10-22T00:06:38;3.20;;;1.63;;
68054;SDS011;54841;43.616;1.460;2022-10-22T00:09:04;3.70;;;1.55;;
68054;SDS011;54841;43.616;1.460;2022-10-22T00:11:29;7.70;;;2.25;;
68054;SDS011;54841;43.616;1.460;2022-10-22T00:13:55;6.15;;;2.30;;
68054;SDS011;54841;43.616;1.460;2022-10-22T00:16:22;4.38;;;1.50;;
68054;SDS011;54841;43.616;1.460;2022-10-22T00:18:47;5.65;;;1.55;;
68054;SDS011;54841;43.616;1.460;2022-10-22T00:21:12;3.28;;;1.42;;
68054;SDS011;54841;43.616;1.460;2022-10-22T00:23:41;7.00;;;1.45;;
68054;SDS011;54841;43.616;1.460;2022-10-22T00:26:07;5.28;;;1.85;;
68054;SDS011;54841;43.616;1.460;2022-10-22T00:28:33;3.42;;;1.45;;
68054;SDS011;54841;43.616;1.460;2022-10-22T00:30:59;4.40;;;1.52;;
68054;SDS011;54841;43.616;1.460;2022-10-22T00:33:25;7.20;;;1.60;;
68054;SDS011;54841;43.616;1.460;2022-10-22T00:35:51;2.53;;;1.60;;
68054;SDS011;54841;43.616;1.460;2022-10-22T00:38:17;4.95;;;1.63;;
68054;SDS011;54841;43.616;1.460;2022-10-22T00:40:42;5.97;;;1.77;;
68054;SDS011;54841;43.616;1.460;2022-10-22T00:43:12;4.55;;;1.63;;
68054;SDS011;54841;43.616;1.460;2022-10-22T00:45:38;4.47;;;1.60;;
68054;SDS011;54841;43.616;1.460;2022-10-22T00:48:14;5.13;;;2.10;;
68054;SDS011;54841;43.616;1.460;2022-10-22T00:50:44;5.45;;;1.63;;
68054;SDS011;54841;43.616;1.460;2022-10-22T00:53:12;3.58;;;1.60;;
68054;SDS011;54841;43.616;1.460;2022-10-22T00:55:40;4.40;;;1.58;;
68054;SDS011;54841;43.616;1.460;2022-10-22T00:58:06;4.40;;;1.75;;
68054;SDS011;54841;43.616;1.460;2022-10-22T01:00:32;5.53;;;1.80;;
68054;SDS011;54841;43.616;1.460;2022-10-22T01:02:57;3.20;;;1.73;;
68054;SDS011;54841;43.616;1.460;2022-10-22T01:05:25;5.05;;;1.52;;
68054;SDS011;54841;43.616;1.460;2022-10-22T01:07:52;4.97;;;1.80;;
68054;SDS011;54841;43.616;1.460;2022-10-22T01:15:38;5.05;;;1.60;;
68054;SDS011;54841;43.616;1.460;2022-10-22T01:18:16;2.83;;;1.30;;
68054;SDS011;54841;43.616;1.460;2022-10-22T01:31:39;4.15;;;1.85;;
68054;SDS011;54841;43.616;1.460;2022-10-22T01:34:08;6.95;;;2.13;;
68054;SDS011;54841;43.616;1.460;2022-10-22T01:36:36;5.60;;;1.92;;
68054;SDS011;54841;43.616;1.460;2022-10-22T01:39:02;3.25;;;1.65;;
68054;SDS011;54841;43.616;1.460;2022-10-22T01:41:29;5.07;;;1.70;;
68054;SDS011;54841;43.616;1.460;2022-10-22T01:43:55;4.97;;;1.95;;
68054;SDS011;54841;43.616;1.460;2022-10-22T01:46:21;4.80;;;2.10;;
68054;SDS011;54841;43.616;1.460;2022-10-22T01:54:51;5.68;;;1.98;;
68054;SDS011;54841;43.616;1.460;2022-10-22T02:02:52;2.22;;;1.60;;
68054;SDS011;54841;43.616;1.460;2022-10-22T02:05:36;4.95;;;1.75;;
68054;SDS011;54841;43.616;1.460;2022-10-22T02:08:08;4.82;;;1.90;;
68054;SDS011;54841;43.616;1.460;2022-10-22T02:10:38;5.80;;;1.95;;
68054;SDS011;54841;43.616;1.460;2022-10-22T02:13:07;6.15;;;2.47;;
68054;SDS011;54841;43.616;1.460;2022-10-22T02:15:34;4.35;;;1.90;;
68054;SDS011;54841;43.616;1.460;2022-10-22T02:18:01;6.47;;;2.17;;
68054;SDS011;54841;43.616;1.460;2022-10-22T02:20:28;7.28;;;2.20;;
68054;SDS011;54841;43.616;1.460;2022-10-22T02:22:55;6.18;;;1.75;;
68054;SDS011;54841;43.616;1.460;2022-10-22T02:25:22;4.63;;;1.92;;
68054;SDS011;54841;43.616;1.460;2022-10-22T02:28:03;6.40;;;1.80;;
68054;SDS011;54841;43.616;1.460;2022-10-22T02:30:31;5.10;;;2.00;;
68054;SDS011;54841;43.616;1.460;2022-10-22T02:33:00;5.95;;;2.08;;
68054;SDS011;54841;43.616;1.460;2022-10-22T02:35:29;5.25;;;2.10;;
68054;SDS011;54841;43.616;1.460;2022-10-22T02:37:55;5.43;;;2.10;;
68054;SDS011;54841;43.616;1.460;2022-10-22T02:40:21;4.97;;;2.17;;
68054;SDS011;54841;43.616;1.460;2022-10-22T02:42:48;5.57;;;2.22;;
68054;SDS011;54841;43.616;1.460;2022-10-22T02:45:14;4.95;;;2.20;;
68054;SDS011;54841;43.616;1.460;2022-10-22T02:47:40;6.07;;;2.53;;
68054;SDS011;54841;43.616;1.460;2022-10-22T02:50:06;8.82;;;2.63;;
68054;SDS011;54841;43.616;1.460;2022-10-22T02:52:31;6.20;;;2.05;;
68054;SDS011;54841;43.616;1.460;2022-10-22T02:54:57;8.20;;;2.53;;
68054;SDS011;54841;43.616;1.460;2022-10-22T02:57:22;8.55;;;3.05;;
68054;SDS011;54841;43.616;1.460;2022-10-22T02:59:48;7.32;;;2.60;;
68054;SDS011;54841;43.616;1.460;2022-10-22T03:02:13;4.97;;;2.58;;
68054;SDS011;54841;43.616;1.460;2022-10-22T03:04:39;6.25;;;2.42;;
68054;SDS011;54841;43.616;1.460;2022-10-22T03:07:04;6.35;;;2.97;;
68054;SDS011;54841;43.616;1.460;2022-10-22T03:09:29;6.70;;;2.45;;
68054;SDS011;54841;43.616;1.460;2022-10-22T03:11:55;7.35;;;2.75;;
68054;SDS011;54841;43.616;1.460;2022-10-22T03:14:20;8.18;;;2.40;;
68054;SDS011;54841;43.616;1.460;2022-10-22T03:16:46;5.75;;;2.50;;
68054;SDS011;54841;43.616;1.460;2022-10-22T03:19:11;5.72;;;2.80;;
68054;SDS011;54841;43.616;1.460;2022-10-22T03:21:38;4.80;;;2.33;;
68054;SDS011;54841;43.616;1.460;2022-10-22T03:24:10;5.65;;;2.63;;
68054;SDS011;54841;43.616;1.460;2022-10-22T03:26:39;4.75;;;2.53;;
68054;SDS011;54841;43.616;1.460;2022-10-22T03:29:05;8.43;;;2.30;;
68054;SDS011;54841;43.616;1.460;2022-10-22T03:31:31;7.40;;;2.38;;
68054;SDS011;54841;43.616;1.460;2022-10-22T03:33:56;6.60;;;2.15;;
68054;SDS011;54841;43.616;1.460;2022-10-22T03:36:22;3.95;;;1.70;;
68054;SDS011;54841;43.616;1.460;2022-10-22T03:38:47;8.93;;;2.50;;
68054;SDS011;54841;43.616;1.460;2022-10-22T03:41:12;6.60;;;1.92;;
68054;SDS011;54841;43.616;1.460;2022-10-22T03:43:38;5.10;;;2.13;;
68054;SDS011;54841;43.616;1.460;2022-10-22T03:46:05;5.50;;;2.22;;
68054;SDS011;54841;43.616;1.460;2022-10-22T03:48:30;6.45;;;2.25;;
68054;SDS011;54841;43.616;1.460;2022-10-22T03:50:56;6.97;;;2.58;;
68054;SDS011;54841;43.616;1.460;2022-10-22T03:53:21;5.10;;;2.05;;
68054;SDS011;54841;43.616;1.460;2022-10-22T03:55:47;5.90;;;2.20;;
68054;SDS011;54841;43.616;1.460;2022-10-22T03:58:12;7.78;;;2.28;;
68054;SDS011;54841;43.616;1.460;2022-10-22T04:00:38;6.78;;;2.28;;
68054;SDS011;54841;43.616;1.460;2022-10-22T04:03:04;6.13;;;2.55;;
68054;SDS011;54841;43.616;1.460;2022-10-22T04:05:31;7.00;;;1.90;;
68054;SDS011;54841;43.616;1.460;2022-10-22T04:07:57;4.60;;;2.20;;
68054;SDS011;54841;43.616;1.460;2022-10-22T04:10:22;7.13;;;2.30;;
68054;SDS011;54841;43.616;1.460;2022-10-22T04:12:47;8.77;;;2.85;;
68054;SDS011;54841;43.616;1.460;2022-10-22T04:15:13;9.65;;;2.08;;
68054;SDS011;54841;43.616;1.460;2022-10-22T04:17:38;4.88;;;2.30;;
68054;SDS011;54841;43.616;1.460;2022-10-22T04:20:04;5.60;;;2.13;;
68054;SDS011;54841;43.616;1.460;2022-10-22T04:22:32;8.13;;;3.53;;
68054;SDS011;54841;43.616;1.460;2022-10-22T04:24:58;6.50;;;1.92;;
68054;SDS011;54841;43.616;1.460;2022-10-22T04:27:24;8.23;;;2.22;;
68054;SDS011;54841;43.616;1.460;2022-10-22T04:29:49;6.22;;;2.15;;
68054;SDS011;54841;43.616;1.460;2022-10-22T04:32:15;7.25;;;2.80;;
68054;SDS011;54841;43.616;1.460;2022-10-22T04:34:40;6.40;;;2.08;;
68054;SDS011;54841;43.616;1.460;2022-10-22T04:37:06;10.57;;;2.97;;
68054;SDS011;54841;43.616;1.460;2022-10-22T04:39:31;4.97;;;2.22;;
68054;SDS011;54841;43.616;1.460;2022-10-22T04:41:56;11.15;;;3.60;;
68054;SDS011;54841;43.616;1.460;2022-10-22T04:44:22;6.43;;;2.35;;
68054;SDS011;54841;43.616;1.460;2022-10-22T04:46:47;11.07;;;2.85;;
68054;SDS011;54841;43.616;1.460;2022-10-22T04:49:13;8.82;;;3.05;;
68054;SDS011;54841;43.616;1.460;2022-10-22T04:51:38;4.53;;;2.13;;
68054;SDS011;54841;43.616;1.460;2022-10-22T04:54:04;5.00;;;2.03;;
68054;SDS011;54841;43.616;1.460;2022-10-22T04:56:30;5.75;;;2.15;;
68054;SDS011;54841;43.616;1.460;2022-10-22T04:58:59;5.70;;;2.10;;
68054;SDS011;54841;43.616;1.460;2022-10-22T05:01:27;5.38;;;2.10;;
68054;SDS011;54841;43.616;1.460;2022-10-22T05:03:55;7.93;;;2.10;;
68054;SDS011;54841;43.616;1.460;2022-10-22T05:06:22;7.47;;;2.70;;
68054;SDS011;54841;43.616;1.460;2022-10-22T05:08:52;5.82;;;2.67;;
68054;SDS011;54841;43.616;1.460;2022-10-22T05:11:20;7.13;;;2.00;;
68054;SDS011;54841;43.616;1.460;2022-10-22T05:13:47;6.30;;;2.30;;
68054;SDS011;54841;43.616;1.460;2022-10-22T05:16:13;4.97;;;2.47;;
68054;SDS011;54841;43.616;1.460;2022-10-22T05:18:40;5.85;;;2.35;;
68054;SDS011;54841;43.616;1.460;2022-10-22T05:21:07;4.70;;;2.53;;
68054;SDS011;54841;43.616;1.460;2022-10-22T05:23:34;6.07;;;2.47;;
68054;SDS011;54841;43.616;1.460;2022-10-22T05:26:03;9.60;;;2.50;;
68054;SDS011;54841;43.616;1.460;2022-10-22T05:28:29;6.75;;;2.67;;
68054;SDS011;54841;43.616;1.460;2022-10-22T05:30:55;7.35;;;2.58;;
68054;SDS011;54841;43.616;1.460;2022-10-22T05:33:22;4.80;;;2.08;;
68054;SDS011;54841;43.616;1.460;2022-10-22T05:35:48;8.95;;;2.90;;
68054;SDS011;54841;43.616;1.460;2022-10-22T05:38:14;5.18;;;2.42;;
68054;SDS011;54841;43.616;1.460;2022-10-22T05:40:40;8.25;;;3.13;;
68054;SDS011;54841;43.616;1.460;2022-10-22T05:43:05;5.65;;;2.75;;
68054;SDS011;54841;43.616;1.460;2022-10-22T05:45:34;12.55;;;3.05;;
68054;SDS011;54841;43.616;1.460;2022-10-22T05:48:01;6.63;;;2.15;;
68054;SDS011;54841;43.616;1.460;2022-10-22T05:50:26;7.57;;;2.17;;
68054;SDS011;54841;43.616;1.460;2022-10-22T05:52:52;5.70;;;2.17;;
68054;SDS011;54841;43.616;1.460;2022-10-22T05:55:17;6.03;;;2.42;;
68054;SDS011;54841;43.616;1.460;2022-10-22T05:57:43;8.75;;;2.53;;
68054;SDS011;54841;43.616;1.460;2022-10-22T06:00:08;7.60;;;2.60;;
68054;SDS011;54841;43.616;1.460;2022-10-22T06:02:34;7.30;;;2.33;;
68054;SDS011;54841;43.616;1.460;2022-10-22T06:04:59;5.93;;;2.67;;
68054;SDS011;54841;43.616;1.460;2022-10-22T06:07:25;8.63;;;2.95;;
68054;SDS011;54841;43.616;1.460;2022-10-22T06:09:50;5.72;;;2.42;;
68054;SDS011;54841;43.616;1.460;2022-10-22T06:12:17;6.00;;;2.10;;
68054;SDS011;54841;43.616;1.460;2022-10-22T06:14:43;4.22;;;2.75;;
68054;SDS011;54841;43.616;1.460;2022-10-22T06:17:08;6.90;;;2.33;;
68054;SDS011;54841;43.616;1.460;2022-10-22T06:19:35;8.18;;;2.80;;
68054;SDS011;54841;43.616;1.460;2022-10-22T06:22:02;5.07;;;1.88;;
68054;SDS011;54841;43.616;1.460;2022-10-22T06:24:28;6.07;;;2.40;;
68054;SDS011;54841;43.616;1.460;2022-10-22T06:26:54;7.22;;;2.60;;
68054;SDS011;54841;43.616;1.460;2022-10-22T06:29:19;4.75;;;2.20;;
68054;SDS011;54841;43.616;1.460;2022-10-22T06:31:44;7.15;;;2.25;;
68054;SDS011;54841;43.616;1.460;2022-10-22T06:34:11;8.30;;;2.78;;
68054;SDS011;54841;43.616;1.460;2022-10-22T06:36:37;4.72;;;2.30;;
68054;SDS011;54841;43.616;1.460;2022-10-22T06:39:03;5.75;;;2.22;;
68054;SDS011;54841;43.616;1.460;2022-10-22T06:41:29;4.70;;;2.63;;
68054;SDS011;54841;43.616;1.460;2022-10-22T06:43:55;4.72;;;2.30;;
68054;SDS011;54841;43.616;1.460;2022-10-22T06:46:21;5.38;;;2.58;;
68054;SDS011;54841;43.616;1.460;2022-10-22T06:48:51;7.60;;;2.63;;
68054;SDS011;54841;43.616;1.460;2022-10-22T06:51:18;7.00;;;2.67;;
68054;SDS011;54841;43.616;1.460;2022-10-22T06:53:44;8.77;;;3.00;;
68054;SDS011;54841;43.616;1.460;2022-10-22T06:56:11;10.43;;;2.60;;
68054;SDS011;54841;43.616;1.460;2022-10-22T06:58:38;5.47;;;2.30;;
68054;SDS011;54841;43.616;1.460;2022-10-22T07:01:04;5.57;;;2.58;;
68054;SDS011;54841;43.616;1.460;2022-10-22T07:03:32;10.25;;;3.08;;
68054;SDS011;54841;43.616;1.460;2022-10-22T07:05:58;9.13;;;3.53;;
68054;SDS011;54841;43.616;1.460;2022-10-22T07:08:27;8.98;;;3.08;;
68054;SDS011;54841;43.616;1.460;2022-10-22T07:10:53;9.18;;;3.28;;
68054;SDS011;54841;43.616;1.460;2022-10-22T07:13:19;7.53;;;3.22;;
68054;SDS011;54841;43.616;1.460;2022-10-22T07:15:44;12.32;;;3.63;;
68054;SDS011;54841;43.616;1.460;2022-10-22T07:18:10;6.70;;;3.10;;
68054;SDS011;54841;43.616;1.460;2022-10-22T07:20:35;6.45;;;3.03;;
68054;SDS011;54841;43.616;1.460;2022-10-22T07:23:01;13.80;;;6.45;;
68054;SDS011;54841;43.616;1.460;2022-10-22T07:25:26;12.00;;;5.68;;
68054;SDS011;54841;43.616;1.460;2022-10-22T07:27:51;7.30;;;3.38;;
68054;SDS011;54841;43.616;1.460;2022-10-22T07:30:17;6.68;;;2.67;;
68054;SDS011;54841;43.616;1.460;2022-10-22T07:32:42;8.82;;;2.70;;
68054;SDS011;54841;43.616;1.460;2022-10-22T07:35:08;7.45;;;2.70;;
68054;SDS011;54841;43.616;1.460;2022-10-22T07:37:33;6.32;;;2.55;;
68054;SDS011;54841;43.616;1.460;2022-10-22T07:39:59;8.52;;;3.20;;
68054;SDS011;54841;43.616;1.460;2022-10-22T07:42:24;5.35;;;2.95;;
68054;SDS011;54841;43.616;1.460;2022-10-22T07:44:50;6.80;;;3.00;;
68054;SDS011;54841;43.616;1.460;2022-10-22T07:47:15;9.32;;;2.95;;
68054;SDS011;54841;43.616;1.460;2022-10-22T07:49:41;7.63;;;2.70;;
68054;SDS011;54841;43.616;1.460;2022-10-22T07:52:06;8.07;;;3.20;;
68054;SDS011;54841;43.616;1.460;2022-10-22T07:54:32;11.07;;;3.33;;
68054;SDS011;54841;43.616;1.460;2022-10-22T07:56:57;5.80;;;3.00;;
68054;SDS011;54841;43.616;1.460;2022-10-22T07:59:22;9.35;;;2.75;;
68054;SDS011;54841;43.616;1.460;2022-10-22T08:01:48;7.55;;;3.15;;
68054;SDS011;54841;43.616;1.460;2022-10-22T08:04:13;9.70;;;3.10;;
68054;SDS011;54841;43.616;1.460;2022-10-22T08:06:39;6.68;;;3.13;;
68054;SDS011;54841;43.616;1.460;2022-10-22T08:09:04;9.45;;;2.80;;
68054;SDS011;54841;43.616;1.460;2022-10-22T08:11:30;6.15;;;2.33;;
68054;SDS011;54841;43.616;1.460;2022-10-22T08:13:57;6.07;;;2.78;;
68054;SDS011;54841;43.616;1.460;2022-10-22T08:16:23;7.45;;;2.80;;
68054;SDS011;54841;43.616;1.460;2022-10-22T08:18:49;7.88;;;2.10;;
68054;SDS011;54841;43.616;1.460;2022-10-22T08:21:14;7.70;;;2.80;;
68054;SDS011;54841;43.616;1.460;2022-10-22T08:23:41;7.20;;;2.85;;
68054;SDS011;54841;43.616;1.460;2022-10-22T08:26:07;7.05;;;3.05;;
68054;SDS011;54841;43.616;1.460;2022-10-22T08:28:32;8.48;;;2.60;;
68054;SDS011;54841;43.616;1.460;2022-10-22T08:31:01;8.55;;;2.95;;
68054;SDS011;54841;43.616;1.460;2022-10-22T08:33:31;5.82;;;2.30;;
68054;SDS011;54841;43.616;1.460;2022-10-22T08:35:56;6.38;;;2.63;;
68054;SDS011;54841;43.616;1.460;2022-10-22T08:38:22;9.38;;;3.00;;
68054;SDS011;54841;43.616;1.460;2022-10-22T08:40:49;4.72;;;2.22;;
68054;SDS011;54841;43.616;1.460;2022-10-22T08:43:23;5.72;;;2.20;;
68054;SDS011;54841;43.616;1.460;2022-10-22T08:51:09;10.77;;;2.88;;
68054;SDS011;54841;43.616;1.460;2022-10-22T08:53:41;5.32;;;2.03;;
68054;SDS011;54841;43.616;1.460;2022-10-22T08:56:13;6.25;;;2.38;;
68054;SDS011;54841;43.616;1.460;2022-10-22T08:58:41;6.53;;;2.80;;
68054;SDS011;54841;43.616;1.460;2022-10-22T09:03:57;5.38;;;2.22;;
68054;SDS011;54841;43.616;1.460;2022-10-22T09:06:35;8.77;;;3.05;;
68054;SDS011;54841;43.616;1.460;2022-10-22T09:09:04;6.85;;;2.35;;
68054;SDS011;54841;43.616;1.460;2022-10-22T09:11:36;8.13;;;2.83;;
68054;SDS011;54841;43.616;1.460;2022-10-22T09:14:03;6.28;;;2.08;;
68054;SDS011;54841;43.616;1.460;2022-10-22T09:16:35;6.50;;;2.33;;
68054;SDS011;54841;43.616;1.460;2022-10-22T09:26:50;5.97;;;1.95;;
68054;SDS011;54841;43.616;1.460;2022-10-22T09:29:17;6.60;;;2.40;;
68054;SDS011;54841;43.616;1.460;2022-10-22T09:31:46;5.20;;;2.20;;
68054;SDS011;54841;43.616;1.460;2022-10-22T09:34:18;6.78;;;2.17;;
68054;SDS011;54841;43.616;1.460;2022-10-22T09:36:44;5.13;;;2.00;;
68054;SDS011;54841;43.616;1.460;2022-10-22T09:39:26;9.02;;;2.53;;
68054;SDS011;54841;43.616;1.460;2022-10-22T09:41:58;4.03;;;2.00;;
68054;SDS011;54841;43.616;1.460;2022-10-22T09:44:23;5.53;;;2.72;;
68054;SDS011;54841;43.616;1.460;2022-10-22T09:46:49;8.25;;;2.83;;
68054;SDS011;54841;43.616;1.460;2022-10-22T09:49:15;4.18;;;1.80;;
68054;SDS011;54841;43.616;1.460;2022-10-22T09:51:56;6.78;;;2.30;;
68054;SDS011;54841;43.616;1.460;2022-10-22T09:54:23;3.78;;;1.58;;
68054;SDS011;54841;43.616;1.460;2022-10-22T09:56:56;4.85;;;1.85;;
68054;SDS011;54841;43.616;1.460;2022-10-22T09:59:29;4.60;;;2.08;;
68054;SDS011;54841;43.616;1.460;2022-10-22T10:02:16;3.90;;;1.85;;
68054;SDS011;54841;43.616;1.460;2022-10-22T10:04:48;7.85;;;2.25;;
68054;SDS011;54841;43.616;1.460;2022-10-22T10:07:21;6.70;;;2.17;;
68054;SDS011;54841;43.616;1.460;2022-10-22T10:09:48;6.47;;;1.75;;
68054;SDS011;54841;43.616;1.460;2022-10-22T10:18:01;4.32;;;1.88;;
68054;SDS011;54841;43.616;1.460;2022-10-22T10:26:13;4.68;;;1.58;;
68054;SDS011;54841;43.616;1.460;2022-10-22T10:34:18;4.38;;;1.67;;
68054;SDS011;54841;43.616;1.460;2022-10-22T10:37:25;3.10;;;1.40;;
68054;SDS011;54841;43.616;1.460;2022-10-22T10:40:03;8.07;;;1.98;;
68054;SDS011;54841;43.616;1.460;2022-10-22T10:43:06;4.20;;;1.90;;
68054;SDS011;54841;43.616;1.460;2022-10-22T10:48:48;6.93;;;1.67;;
68054;SDS011;54841;43.616;1.460;2022-10-22T10:51:21;4.18;;;1.83;;
68054;SDS011;54841;43.616;1.460;2022-10-22T10:56:59;6.80;;;1.60;;
68054;SDS011;54841;43.616;1.460;2022-10-22T11:02:21;4.63;;;2.17;;
68054;SDS011;54841;43.616;1.460;2022-10-22T11:07:30;6.10;;;1.60;;
68054;SDS011;54841;43.616;1.460;2022-10-22T11:12:45;5.63;;;1.52;;
68054;SDS011;54841;43.616;1.460;2022-10-22T11:15:21;6.95;;;1.95;;
68054;SDS011;54841;43.616;1.460;2022-10-22T11:17:55;4.38;;;1.58;;
68054;SDS011;54841;43.616;1.460;2022-10-22T11:20:38;7.85;;;1.80;;
68054;SDS011;54841;43.616;1.460;2022-10-22T11:23:21;5.35;;;2.42;;
68054;SDS011;54841;43.616;1.460;2022-10-22T11:25:50;6.85;;;1.80;;
68054;SDS011;54841;43.616;1.460;2022-10-22T11:30:54;4.28;;;1.60;;
68054;SDS011;54841;43.616;1.460;2022-10-22T11:33:32;6.35;;;2.00;;
68054;SDS011;54841;43.616;1.460;2022-10-22T11:36:02;8.07;;;2.20;;
68054;SDS011;54841;43.616;1.460;2022-10-22T11:38:29;5.97;;;2.10;;
68054;SDS011;54841;43.616;1.460;2022-10-22T11:41:04;8.27;;;2.25;;
68054;SDS011;54841;43.616;1.460;2022-10-22T11:43:35;6.75;;;2.83;;
68054;SDS011;54841;43.616;1.460;2022-10-22T11:48:42;8.10;;;2.70;;
68054;SDS011;54841;43.616;1.460;2022-10-22T11:54:00;10.85;;;3.05;;
68054;SDS011;54841;43.616;1.460;2022-10-22T11:56:31;9.45;;;3.63;;
68054;SDS011;54841;43.616;1.460;2022-10-22T11:59:02;11.15;;;2.83;;
68054;SDS011;54841;43.616;1.460;2022-10-22T12:01:28;9.27;;;3.28;;
68054;SDS011;54841;43.616;1.460;2022-10-22T12:04:16;12.45;;;3.58;;
68054;SDS011;54841;43.616;1.460;2022-10-22T12:06:56;12.48;;;3.17;;
68054;SDS011;54841;43.616;1.460;2022-10-22T12:09:23;8.18;;;3.45;;
68054;SDS011;54841;43.616;1.460;2022-10-22T12:11:50;9.13;;;3.10;;
68054;SDS011;54841;43.616;1.460;2022-10-22T12:14:26;8.98;;;3.10;;
68054;SDS011;54841;43.616;1.460;2022-10-22T12:17:15;10.93;;;3.08;;
68054;SDS011;54841;43.616;1.460;2022-10-22T12:19:42;12.80;;;3.20;;
68054;SDS011;54841;43.616;1.460;2022-10-22T12:22:12;10.48;;;3.75;;
68054;SDS011;54841;43.616;1.460;2022-10-22T12:24:45;12.32;;;3.20;;
68054;SDS011;54841;43.616;1.460;2022-10-22T12:29:58;12.68;;;3.50;;
68054;SDS011;54841;43.616;1.460;2022-10-22T12:32:32;7.07;;;2.67;;
68054;SDS011;54841;43.616;1.460;2022-10-22T12:35:05;11.07;;;2.95;;
68054;SDS011;54841;43.616;1.460;2022-10-22T12:37:34;7.47;;;2.88;;
68054;SDS011;54841;43.616;1.460;2022-10-22T12:40:01;7.28;;;2.63;;
68054;SDS011;54841;43.616;1.460;2022-10-22T12:42:26;13.75;;;3.10;;
68054;SDS011;54841;43.616;1.460;2022-10-22T12:44:55;8.88;;;3.28;;
68054;SDS011;54841;43.616;1.460;2022-10-22T12:47:20;5.22;;;2.38;;
68054;SDS011;54841;43.616;1.460;2022-10-22T12:49:47;5.72;;;2.97;;
68054;SDS011;54841;43.616;1.460;2022-10-22T12:52:14;8.30;;;2.92;;
68054;SDS011;54841;43.616;1.460;2022-10-22T12:54:43;6.97;;;2.15;;
68054;SDS011;54841;43.616;1.460;2022-10-22T12:57:10;6.03;;;3.35;;
68054;SDS011;54841;43.616;1.460;2022-10-22T12:59:38;12.57;;;3.13;;
68054;SDS011;54841;43.616;1.460;2022-10-22T13:02:24;7.72;;;2.22;;
68054;SDS011;54841;43.616;1.460;2022-10-22T13:05:13;8.15;;;2.60;;
68054;SDS011;54841;43.616;1.460;2022-10-22T13:07:42;8.02;;;2.53;;
68054;SDS011;54841;43.616;1.460;2022-10-22T13:10:48;7.68;;;1.98;;
68054;SDS011;54841;43.616;1.460;2022-10-22T13:13:05;7.57;;;2.40;;
68054;SDS011;54841;43.616;1.460;2022-10-22T13:18:03;9.43;;;2.42;;
68054;SDS011;54841;43.616;1.460;2022-10-22T13:20:50;6.18;;;2.53;;
68054;SDS011;54841;43.616;1.460;2022-10-22T13:23:21;5.00;;;2.35;;
68054;SDS011;54841;43.616;1.460;2022-10-22T13:26:10;6.30;;;2.47;;
68054;SDS011;54841;43.616;1.460;2022-10-22T13:28:38;6.30;;;2.28;;
68054;SDS011;54841;43.616;1.460;2022-10-22T13:31:16;5.93;;;2.40;;
68054;SDS011;54841;43.616;1.460;2022-10-22T13:33:44;8.90;;;2.42;;
68054;SDS011;54841;43.616;1.460;2022-10-22T13:36:14;6.93;;;2.63;;
68054;SDS011;54841;43.616;1.460;2022-10-22T13:38:40;8.20;;;2.58;;
68054;SDS011;54841;43.616;1.460;2022-10-22T13:43:51;4.07;;;2.05;;
68054;SDS011;54841;43.616;1.460;2022-10-22T13:46:17;6.28;;;2.33;;
68054;SDS011;54841;43.616;1.460;2022-10-22T13:48:43;4.75;;;2.33;;
68054;SDS011;54841;43.616;1.460;2022-10-22T13:51:16;7.13;;;2.38;;
68054;SDS011;54841;43.616;1.460;2022-10-22T13:53:44;7.15;;;2.08;;
68054;SDS011;54841;43.616;1.460;2022-10-22T13:56:14;7.97;;;2.63;;
68054;SDS011;54841;43.616;1.460;2022-10-22T13:58:41;3.90;;;1.83;;
68054;SDS011;54841;43.616;1.460;2022-10-22T14:01:10;4.95;;;2.28;;
68054;SDS011;54841;43.616;1.460;2022-10-22T14:03:40;4.80;;;1.95;;
68054;SDS011;54841;43.616;1.460;2022-10-22T14:06:06;5.18;;;2.25;;
68054;SDS011;54841;43.616;1.460;2022-10-22T14:08:36;7.25;;;2.78;;
68054;SDS011;54841;43.616;1.460;2022-10-22T14:11:02;5.45;;;2.28;;
68054;SDS011;54841;43.616;1.460;2022-10-22T14:13:27;6.95;;;2.42;;
68054;SDS011;54841;43.616;1.460;2022-10-22T14:15:53;6.65;;;2.40;;
68054;SDS011;54841;43.616;1.460;2022-10-22T14:18:19;7.15;;;2.40;;
68054;SDS011;54841;43.616;1.460;2022-10-22T14:20:51;6.93;;;2.63;;
68054;SDS011;54841;43.616;1.460;2022-10-22T14:23:19;5.45;;;2.50;;
68054;SDS011;54841;43.616;1.460;2022-10-22T14:25:46;4.05;;;1.90;;
68054;SDS011;54841;43.616;1.460;2022-10-22T14:28:12;5.25;;;2.17;;
68054;SDS011;54841;43.616;1.460;2022-10-22T14:30:38;4.15;;;1.70;;
68054;SDS011;54841;43.616;1.460;2022-10-22T14:35:54;4.38;;;1.77;;
68054;SDS011;54841;43.616;1.460;2022-10-22T14:38:20;4.20;;;2.00;;
68054;SDS011;54841;43.616;1.460;2022-10-22T14:40:46;4.43;;;2.30;;
68054;SDS011;54841;43.616;1.460;2022-10-22T14:45:47;7.05;;;2.58;;
68054;SDS011;54841;43.616;1.460;2022-10-22T14:48:13;6.82;;;2.17;;
68054;SDS011;54841;43.616;1.460;2022-10-22T14:50:40;5.88;;;2.30;;
68054;SDS011;54841;43.616;1.460;2022-10-22T14:53:06;8.75;;;2.80;;
68054;SDS011;54841;43.616;1.460;2022-10-22T14:55:31;7.10;;;2.10;;
68054;SDS011;54841;43.616;1.460;2022-10-22T14:57:57;6.40;;;2.25;;
68054;SDS011;54841;43.616;1.460;2022-10-22T15:00:22;5.68;;;2.42;;
68054;SDS011;54841;43.616;1.460;2022-10-22T15:02:48;7.63;;;2.67;;
68054;SDS011;54841;43.616;1.460;2022-10-22T15:05:13;6.60;;;2.58;;
68054;SDS011;54841;43.616;1.460;2022-10-22T15:07:39;4.18;;;2.53;;
68054;SDS011;54841;43.616;1.460;2022-10-22T15:10:05;7.65;;;3.05;;
68054;SDS011;54841;43.616;1.460;2022-10-22T15:12:32;7.43;;;1.98;;
68054;SDS011;54841;43.616;1.460;2022-10-22T15:14:57;9.48;;;2.40;;
68054;SDS011;54841;43.616;1.460;2022-10-22T15:17:23;8.90;;;2.60;;
68054;SDS011;54841;43.616;1.460;2022-10-22T15:19:48;6.38;;;2.10;;
68054;SDS011;54841;43.616;1.460;2022-10-22T15:22:14;7.07;;;2.20;;
68054;SDS011;54841;43.616;1.460;2022-10-22T15:24:40;5.95;;;2.20;;
68054;SDS011;54841;43.616;1.460;2022-10-22T15:27:08;6.78;;;2.47;;
68054;SDS011;54841;43.616;1.460;2022-10-22T15:29:37;8.52;;;2.85;;
68054;SDS011;54841;43.616;1.460;2022-10-22T15:32:03;6.28;;;2.28;;
68054;SDS011;54841;43.616;1.460;2022-10-22T15:34:30;6.80;;;2.50;;
68054;SDS011;54841;43.616;1.460;2022-10-22T15:37:00;10.02;;;2.50;;
68054;SDS011;54841;43.616;1.460;2022-10-22T15:39:27;8.48;;;2.97;;
68054;SDS011;54841;43.616;1.460;2022-10-22T15:41:53;7.43;;;2.70;;
68054;SDS011;54841;43.616;1.460;2022-10-22T15:44:20;9.15;;;3.08;;
68054;SDS011;54841;43.616;1.460;2022-10-22T15:46:47;8.30;;;2.75;;
68054;SDS011;54841;43.616;1.460;2022-10-22T15:49:13;5.28;;;2.72;;
68054;SDS011;54841;43.616;1.460;2022-10-22T15:51:38;9.10;;;3.03;;
68054;SDS011;54841;43.616;1.460;2022-10-22T15:54:04;9.15;;;3.00;;
68054;SDS011;54841;43.616;1.460;2022-10-22T15:56:30;7.13;;;2.83;;
68054;SDS011;54841;43.616;1.460;2022-10-22T15:58:59;9.00;;;2.63;;
68054;SDS011;54841;43.616;1.460;2022-10-22T16:01:28;7.60;;;2.90;;
68054;SDS011;54841;43.616;1.460;2022-10-22T16:03:56;7.28;;;3.10;;
68054;SDS011;54841;43.616;1.460;2022-10-22T16:06:26;7.20;;;2.75;;
68054;SDS011;54841;43.616;1.460;2022-10-22T16:08:53;7.30;;;3.15;;
68054;SDS011;54841;43.616;1.460;2022-10-22T16:11:21;9.02;;;3.38;;
68054;SDS011;54841;43.616;1.460;2022-10-22T16:13:46;11.68;;;3.30;;
68054;SDS011;54841;43.616;1.460;2022-10-22T16:16:12;12.23;;;3.97;;
68054;SDS011;54841;43.616;1.460;2022-10-22T16:18:37;9.45;;;2.97;;
68054;SDS011;54841;43.616;1.460;2022-10-22T16:21:03;8.00;;;3.28;;
68054;SDS011;54841;43.616;1.460;2022-10-22T16:23:28;8.20;;;3.30;;
68054;SDS011;54841;43.616;1.460;2022-10-22T16:25:54;7.63;;;3.00;;
68054;SDS011;54841;43.616;1.460;2022-10-22T16:28:19;7.97;;;3.67;;